North Weymouth, Massachusetts
Current Conditions -  °F | °C
As of 7:54 PM on Wednesday 17 Dec 2014 (Local Time) from KBOS Reporting Station
Overcast Overcast  
Wind Chill: 39°   Ceiling: 4200
Heat Index: 45°   Visibility: 10mi
Dew Point: 38°   Wind: 14mph
Humidity: 76%   Direction: 280°W
Pressure: 29.73"   Gusts: NA
Location:  42.2435°N, 70.9438°W
Report Text: KBOS 180054Z 28012KT 10SM FEW033 BKN042 OVC120 07/03 A2973 RMK AO2 SLP067 T00720033
Loading
Personal Weather Stations






























Interactive Weather Map New forecast layout! Learn more

10-Day Weather Forecast

Advertisements
Track Severe Weather on mobile